Time;durP1;ratioP1;P1;durP2;ratioP2;P2;SDS_P1;SDS_P2;PMS_P1;PMS_P2;Temp;Humidity;BMP_temperature;BMP_pressure;BME280_temperature;BME280_humidity;BME280_pressure;Samples;Min_cycle;Max_cycle;Signal;HPM_P1;HPM_P2
2023/10/02 00:02:00;;;;;;;15.23;7.90;;;17.60;97.90;;;17.98;60.93;95571.28;5110408;27;20526;-59
2023/10/02 00:04:28;;;;;;;9.70;7.77;;;17.60;97.70;;;18.00;60.95;95577.25;5118106;28;20479;-57
2023/10/02 00:07:13;;;;;;;13.83;8.67;;;17.60;97.60;;;18.00;60.66;95571.94;5112811;28;20452;-56
2023/10/02 00:09:41;;;;;;;13.63;8.50;;;17.60;97.50;;;18.00;61.08;95569.28;5114022;28;20480;-59
2023/10/02 00:12:12;;;;;;;13.33;9.07;;;17.60;97.40;;;18.02;60.57;95572.63;5112715;28;20988;-58
2023/10/02 00:14:38;;;;;;;8.90;7.93;;;17.60;97.20;;;18.01;60.34;95577.09;5112433;28;20511;-59
2023/10/02 00:17:07;;;;;;;8.90;8.10;;;17.60;97.10;;;18.03;60.89;95574.25;5113969;28;20821;-59
2023/10/02 00:19:39;;;;;;;10.33;8.40;;;17.60;97.00;;;18.03;60.58;95574.25;5117416;27;20488;-57
2023/10/02 00:22:09;;;;;;;11.70;7.50;;;17.60;97.00;;;18.04;60.33;95581.25;5117245;28;20448;-59
2023/10/02 00:24:38;;;;;;;10.80;7.73;;;17.60;96.80;;;18.04;59.86;95573.28;5114478;27;20473;-59
2023/10/02 00:27:06;;;;;;;12.30;7.93;;;17.60;96.70;;;18.03;60.32;95571.59;5117288;27;20472;-58
2023/10/02 00:29:34;;;;;;;10.90;7.07;;;17.60;96.60;;;18.03;60.20;95572.44;5111085;28;20476;-58
2023/10/02 00:32:10;;;;;;;11.33;7.10;;;17.60;96.50;;;18.03;60.18;95569.78;5099966;28;20454;-59
2023/10/02 00:34:39;;;;;;;12.63;7.27;;;17.60;96.30;;;18.03;59.48;95567.13;5092053;28;20542;-57
2023/10/02 00:37:12;;;;;;;10.83;6.60;;;17.60;96.30;;;18.02;59.83;95567.31;5092303;28;20824;-59
2023/10/02 00:39:40;;;;;;;8.90;7.20;;;17.60;96.00;;;18.02;59.78;95572.63;5099783;28;20494;-57
2023/10/02 00:42:15;;;;;;;9.50;5.90;;;17.60;96.00;;;18.01;59.21;95566.44;5102406;28;20449;-59
2023/10/02 00:44:52;;;;;;;13.63;6.40;;;17.60;95.90;;;18.02;59.07;95569.97;5099507;28;20476;-58
2023/10/02 00:50:20;;;;;;;9.73;6.07;;;17.60;95.50;;;17.96;58.91;95558.16;5103334;27;20548;-58
2023/10/02 00:52:58;;;;;;;10.77;6.70;;;17.60;95.50;;;17.95;59.24;95566.31;5098425;28;20460;-59
2023/10/02 00:55:30;;;;;;;12.47;7.10;;;17.60;95.50;;;17.96;59.08;95565.31;5095639;28;20470;-56
2023/10/02 00:57:57;;;;;;;11.60;6.50;;;17.60;95.40;;;17.94;58.76;95562.81;5098040;28;20883;-56
2023/10/02 01:00:35;;;;;;;11.10;6.10;;;17.60;95.40;;;17.94;58.73;95565.47;5096643;28;21004;-57
2023/10/02 01:03:04;;;;;;;11.43;5.83;;;17.50;95.30;;;17.93;58.47;95563.81;5095532;28;20454;-58
2023/10/02 01:05:46;;;;;;;9.23;7.13;;;17.50;95.30;;;17.91;58.85;95556.00;5098502;28;20556;-59
2023/10/02 01:08:42;;;;;;;11.93;6.90;;;17.50;95.20;;;17.90;58.79;95564.16;5096481;28;20566;-59
2023/10/02 01:11:13;;;;;;;10.83;6.20;;;17.50;95.20;;;17.87;58.94;95564.44;5096797;28;20447;-58
2023/10/02 01:13:41;;;;;;;15.27;6.47;;;17.50;95.20;;;17.84;58.90;95562.94;5095229;28;20449;-56
2023/10/02 01:16:09;;;;;;;11.93;6.70;;;17.40;95.10;;;17.82;58.54;95561.47;5095834;28;20489;-59
2023/10/02 01:18:37;;;;;;;8.27;6.70;;;17.40;95.00;;;17.80;58.38;95563.44;5096856;28;20456;-58
2023/10/02 01:21:11;;;;;;;11.43;6.10;;;17.40;94.90;;;17.79;58.30;95561.81;5097109;28;20567;-60
2023/10/02 01:24:06;;;;;;;9.20;6.93;;;17.40;94.90;;;17.75;58.80;95561.28;5091674;28;20986;-59
2023/10/02 01:26:33;;;;;;;15.03;6.27;;;17.40;94.90;;;17.71;58.75;95567.97;5095747;28;20445;-59
2023/10/02 01:29:04;;;;;;;13.93;6.60;;;17.30;94.90;;;17.69;58.74;95569.94;5098016;28;20490;-59
2023/10/02 01:31:41;;;;;;;12.43;6.00;;;17.30;94.90;;;17.65;58.31;95569.44;5094496;28;20491;-56
2023/10/02 01:34:10;;;;;;;9.23;6.17;;;17.30;94.80;;;17.64;58.35;95569.63;5096230;28;20552;-57
2023/10/02 01:36:41;;;;;;;9.10;6.50;;;17.30;94.90;;;17.63;58.17;95573.25;5097906;28;20969;-57
2023/10/02 01:39:14;;;;;;;7.80;5.87;;;17.20;94.80;;;17.62;58.41;95571.63;5091288;28;20560;-56
2023/10/02 01:41:42;;;;;;;10.83;6.20;;;17.20;94.90;;;17.59;58.92;95561.31;5096294;28;20456;-58
2023/10/02 01:44:10;;;;;;;8.60;6.10;;;17.20;94.80;;;17.58;58.70;95572.94;5097800;28;20485;-57
2023/10/02 01:46:49;;;;;;;6.10;5.40;;;17.20;94.80;;;17.54;58.75;95575.09;5097747;28;20457;-59
2023/10/02 01:49:25;;;;;;;8.07;6.13;;;17.20;94.80;;;17.51;58.27;95575.44;5097594;28;20520;-61
2023/10/02 01:51:55;;;;;;;7.73;5.87;;;17.10;94.80;;;17.46;58.31;95581.25;5095018;28;20883;-56
2023/10/02 01:54:25;;;;;;;7.43;5.93;;;17.10;94.80;;;17.44;58.56;95587.72;5094337;28;20474;-58
2023/10/02 01:56:55;;;;;;;14.67;6.00;;;17.10;94.80;;;17.41;58.83;95586.22;5094234;28;20934;-59
2023/10/02 01:59:24;;;;;;;9.10;6.57;;;17.10;94.80;;;17.39;58.47;95593.53;5095210;28;20480;-58
2023/10/02 02:01:53;;;;;;;6.30;5.67;;;17.00;94.80;;;17.38;58.99;95582.06;5082397;28;20455;-56
2023/10/02 02:04:19;;;;;;;11.00;6.40;;;17.00;94.90;;;17.37;58.47;95580.41;5081621;28;20509;-58
2023/10/02 02:06:52;;;;;;;17.13;6.00;;;17.00;94.90;;;17.34;58.51;95577.25;5083137;28;20446;-59
2023/10/02 02:09:23;;;;;;;10.57;6.20;;;17.00;94.90;;;17.31;58.74;95580.22;5083153;28;20489;-58
2023/10/02 02:12:06;;;;;;;9.20;7.20;;;16.90;94.90;;;17.26;58.52;95585.19;5080654;28;20977;-58
2023/10/02 02:14:33;;;;;;;8.30;6.40;;;16.90;94.80;;;17.22;58.63;95584.69;5083695;28;20473;-58
2023/10/02 02:17:01;;;;;;;6.47;5.80;;;16.90;95.00;;;17.19;58.55;95577.88;5080841;28;20500;-57
2023/10/02 02:19:30;;;;;;;8.77;6.47;;;16.80;95.00;;;17.19;58.63;95583.19;5082546;28;20501;-58
2023/10/02 02:21:57;;;;;;;7.10;5.93;;;16.80;95.00;;;17.18;58.95;95586.00;5082600;28;20478;-58
2023/10/02 02:24:25;;;;;;;8.17;6.10;;;16.80;95.00;;;17.16;58.87;95588.00;5083277;28;21058;-59
2023/10/02 02:26:57;;;;;;;15.10;5.73;;;16.80;95.00;;;17.14;59.02;95577.53;5083080;28;20459;-57
2023/10/02 02:29:26;;;;;;;8.87;5.70;;;16.80;94.90;;;17.10;58.65;95584.19;5080553;28;20494;-57
2023/10/02 02:31:54;;;;;;;9.57;6.00;;;16.70;94.80;;;17.08;58.64;95588.81;5083377;28;20541;-56
2023/10/02 02:34:23;;;;;;;10.27;6.30;;;16.70;94.90;;;17.02;58.36;95592.13;5080645;28;20467;-59
2023/10/02 02:36:50;;;;;;;9.40;5.73;;;16.70;95.10;;;16.97;58.99;95589.94;5081148;28;20852;-57
2023/10/02 02:39:22;;;;;;;10.30;5.80;;;16.60;94.80;;;16.91;58.50;95585.28;5082490;28;20512;-57
2023/10/02 02:42:08;;;;;;;10.93;5.60;;;16.60;94.80;;;16.85;59.06;95591.22;5081711;28;20475;-57
2023/10/02 02:44:40;;;;;;;7.17;6.43;;;16.50;94.70;;;16.80;59.02;95597.00;5082332;28;20478;-59
2023/10/02 02:47:08;;;;;;;6.00;5.00;;;16.50;94.70;;;16.77;58.75;95593.84;5083253;28;20530;-57
2023/10/02 02:49:48;;;;;;;10.77;5.90;;;16.50;94.60;;;16.76;58.61;95593.03;5079921;28;20498;-56
2023/10/02 02:52:17;;;;;;;7.33;5.30;;;16.40;94.60;;;16.74;58.24;95600.28;5071460;28;20438;-59
2023/10/02 02:54:48;;;;;;;7.47;5.20;;;16.40;94.30;;;16.71;58.24;95600.63;5070864;28;20499;-61
2023/10/02 02:57:25;;;;;;;8.03;5.40;;;16.40;94.20;;;16.68;57.90;95592.97;5072330;28;20447;-60
2023/10/02 03:00:24;;;;;;;12.00;5.97;;;16.40;94.00;;;16.65;58.01;95601.25;5083689;28;20557;-57
2023/10/02 03:02:45;;;;;;;6.60;5.77;;;16.30;93.90;;;16.65;58.46;95601.25;5082682;28;20451;-58
2023/10/02 03:05:13;;;;;;;9.90;5.43;;;16.30;94.50;;;16.69;58.61;95601.78;5072018;28;20470;-59
2023/10/02 03:07:42;;;;;;;6.70;4.57;;;16.40;94.60;;;16.72;58.19;95599.63;5085683;28;20513;-59
2023/10/02 03:10:13;;;;;;;10.50;5.20;;;16.30;94.10;;;16.77;57.97;95594.66;5085989;28;20852;-58
2023/10/02 03:12:44;;;;;;;14.90;5.13;;;16.40;94.40;;;16.83;57.57;95587.88;5070084;28;20443;-59
2023/10/02 03:15:15;;;;;;;12.73;4.60;;;16.50;94.00;;;16.87;57.69;95591.06;5070979;28;20498;-59
2023/10/02 03:17:43;;;;;;;8.70;4.60;;;16.50;93.80;;;16.90;57.46;95583.63;5082346;28;20520;-59
2023/10/02 03:20:22;;;;;;;8.33;4.80;;;16.50;93.80;;;16.94;57.19;95587.63;5085605;28;20477;-57
2023/10/02 03:22:53;;;;;;;7.37;4.50;;;16.60;93.30;;;16.92;56.89;95584.28;5089494;28;20445;-57
2023/10/02 03:25:28;;;;;;;15.57;5.60;;;16.50;93.10;;;16.93;57.18;95587.78;5072356;28;20522;-56
2023/10/02 03:27:57;;;;;;;13.30;5.20;;;16.50;93.50;;;16.94;56.97;95592.94;5082960;28;20450;-59
2023/10/02 03:30:39;;;;;;;8.80;5.47;;;16.60;92.90;;;16.91;56.87;95593.25;5088316;28;20574;-56
2023/10/02 03:33:17;;;;;;;8.43;5.07;;;16.60;92.80;;;16.87;56.81;95591.06;5088348;28;20541;-58
2023/10/02 03:35:56;;;;;;;8.80;5.50;;;16.50;92.80;;;16.84;56.53;95585.06;5085486;28;20453;-57
2023/10/02 03:38:25;;;;;;;8.13;4.90;;;16.50;92.70;;;16.83;56.37;95594.03;5084809;28;20461;-56
2023/10/02 03:40:57;;;;;;;7.80;5.17;;;16.50;92.60;;;16.83;56.26;95583.41;5089013;28;21033;-59
2023/10/02 03:43:35;;;;;;;11.33;5.07;;;16.50;92.70;;;16.82;56.07;95592.38;5056307;28;20970;-58
2023/10/02 03:46:23;;;;;;;16.83;5.23;;;16.50;92.20;;;16.79;55.94;95587.38;5083189;28;20527;-58
2023/10/02 03:48:58;;;;;;;6.63;4.90;;;16.40;92.10;;;16.78;56.20;95583.06;5085128;28;20486;-60
2023/10/02 03:51:36;;;;;;;16.00;5.60;;;16.40;92.10;;;16.75;56.07;95580.72;5083609;28;21071;-60
2023/10/02 03:54:18;;;;;;;10.00;5.17;;;16.40;91.90;;;16.73;56.23;95588.03;5080106;28;20510;-58
2023/10/02 03:56:47;;;;;;;8.00;4.97;;;16.40;92.00;;;16.70;55.81;95587.50;5070229;28;20475;-58
2023/10/02 03:59:17;;;;;;;9.00;4.57;;;16.30;91.70;;;16.66;56.31;95592.31;5069924;28;20502;-58
2023/10/02 04:01:47;;;;;;;11.70;4.60;;;16.30;92.00;;;16.63;56.16;95595.28;5069496;28;20455;-60
2023/10/02 04:04:21;;;;;;;5.87;4.50;;;16.30;92.10;;;16.62;55.81;95585.63;5069931;28;20475;-58
2023/10/02 04:06:50;;;;;;;8.40;4.37;;;16.30;91.80;;;16.63;55.78;95595.28;5081177;28;20494;-59
2023/10/02 04:09:21;;;;;;;11.00;5.67;;;16.30;91.80;;;16.64;55.95;95604.91;5077788;28;20581;-57
2023/10/02 04:11:51;;;;;;;6.23;5.10;;;16.30;91.70;;;16.64;55.90;95603.09;5079756;28;20434;-60
2023/10/02 04:14:19;;;;;;;6.40;4.23;;;16.30;91.70;;;16.65;55.68;95606.56;5080569;28;20478;-58
2023/10/02 04:16:51;;;;;;;8.17;5.10;;;16.30;91.50;;;16.67;55.90;95609.91;5077619;28;20509;-58
2023/10/02 04:19:23;;;;;;;9.10;4.90;;;16.30;91.70;;;16.69;55.36;95607.09;5079719;28;20497;-60
2023/10/02 04:21:52;;;;;;;14.10;5.97;;;16.30;91.50;;;16.69;55.61;95613.22;5080791;28;20446;-60
2023/10/02 04:24:23;;;;;;;11.87;6.07;;;16.30;91.20;;;16.70;55.22;95609.59;5070168;28;20471;-60
2023/10/02 04:26:54;;;;;;;8.90;4.40;;;16.30;91.00;;;16.69;54.79;95620.38;5081847;28;20446;-58
2023/10/02 04:29:28;;;;;;;13.17;5.03;;;16.40;90.80;;;16.67;54.53;95607.25;5077643;28;20486;-58
2023/10/02 04:32:12;;;;;;;8.63;4.60;;;16.40;90.60;;;16.64;54.59;95623.50;5079703;28;20581;-59
2023/10/02 04:34:46;;;;;;;10.07;5.83;;;16.30;90.20;;;16.59;54.74;95628.44;5080176;28;20561;-59
2023/10/02 04:37:20;;;;;;;15.20;5.37;;;16.30;90.20;;;16.55;54.88;95621.81;5080503;28;20438;-60
2023/10/02 04:40:00;;;;;;;8.23;5.00;;;16.20;90.30;;;16.52;54.57;95628.25;5078055;28;20480;-57
2023/10/02 04:42:29;;;;;;;15.60;4.30;;;16.20;90.20;;;16.48;54.64;95638.38;5077663;28;20965;-62
2023/10/02 04:44:56;;;;;;;9.90;4.50;;;16.10;90.00;;;16.47;54.45;95635.88;5080043;28;20469;-56
2023/10/02 04:47:27;;;;;;;6.87;4.00;;;16.20;90.10;;;16.45;54.53;95632.53;5079043;28;20450;-59
2023/10/02 04:52:57;;;;;;;15.40;5.83;;;16.10;90.10;;;16.44;54.58;95641.50;5081221;28;20587;-58
2023/10/02 04:55:27;;;;;;;4.90;4.17;;;16.10;90.00;;;16.45;54.33;95636.03;5082213;28;20584;-60
2023/10/02 04:57:56;;;;;;;10.63;4.63;;;16.10;89.90;;;16.47;54.42;95644.66;5081219;28;20439;-59
2023/10/02 05:00:33;;;;;;;13.90;3.77;;;16.10;90.00;;;16.52;54.47;95648.69;5077862;28;20510;-59
2023/10/02 05:03:18;;;;;;;7.17;4.30;;;16.20;90.00;;;16.54;54.38;95646.69;5080465;28;20582;-59
2023/10/02 05:05:49;;;;;;;6.70;4.00;;;16.20;89.70;;;16.56;53.55;95652.66;5080036;28;20471;-59
2023/10/02 05:08:20;;;;;;;10.80;4.83;;;16.20;89.00;;;16.56;53.85;95648.22;5078055;28;20963;-59
2023/10/02 05:10:49;;;;;;;14.63;4.67;;;16.20;88.40;;;16.57;53.92;95643.72;5079396;28;21009;-58
2023/10/02 05:16:11;;;;;;;20.37;4.77;;;16.30;88.50;;;16.60;53.93;95643.41;5079076;28;20595;-61
2023/10/02 05:18:44;;;;;;;8.30;4.63;;;16.30;88.50;;;16.60;53.38;95641.56;5077928;28;20450;-59
2023/10/02 05:21:14;;;;;;;12.47;4.77;;;16.30;88.50;;;16.63;53.67;95651.88;5078477;28;20489;-59
2023/10/02 05:23:43;;;;;;;9.43;4.73;;;16.30;88.10;;;16.66;53.42;95650.75;5081297;28;20454;-59
2023/10/02 05:26:29;;;;;;;6.93;4.43;;;16.30;88.40;;;16.69;53.23;95655.75;5078061;28;21047;-57
2023/10/02 05:28:56;;;;;;;7.73;4.27;;;16.30;87.90;;;16.74;53.23;95671.19;5080164;28;20971;-57
2023/10/02 05:31:23;;;;;;;10.83;4.67;;;16.40;87.40;;;16.78;53.43;95656.63;5078486;28;20994;-57
2023/10/02 05:33:51;;;;;;;12.00;4.33;;;16.40;87.40;;;16.82;53.13;95661.47;5079914;28;20458;-59
2023/10/02 05:36:21;;;;;;;7.37;4.00;;;16.50;87.20;;;16.88;52.77;95670.63;5081381;28;20462;-60
2023/10/02 05:41:41;;;;;;;18.10;4.20;;;16.60;86.80;;;17.05;53.08;95671.53;5084521;28;20878;-58
2023/10/02 05:44:13;;;;;;;10.70;3.83;;;16.70;86.90;;;17.16;52.37;95673.88;5081623;28;21117;-60
2023/10/02 05:46:55;;;;;;;13.53;5.90;;;16.80;85.90;;;17.27;52.33;95679.91;5081404;28;20541;-60
2023/10/02 05:49:24;;;;;;;5.37;4.13;;;16.90;85.90;;;17.44;51.66;95670.97;5083516;28;20482;-59
2023/10/02 05:51:55;;;;;;;17.00;4.13;;;17.00;85.30;;;17.65;51.39;95672.38;5078907;28;20503;-59
2023/10/02 05:54:29;;;;;;;5.23;4.10;;;17.20;84.70;;;17.88;51.22;95676.09;5085939;28;20501;-59
2023/10/02 05:57:09;;;;;;;9.70;3.77;;;17.40;83.60;;;18.14;51.13;95661.78;5083855;28;20475;-59
2023/10/02 05:59:47;;;;;;;7.97;4.10;;;17.60;83.60;;;18.45;50.28;95669.06;5089643;28;20923;-57
2023/10/02 06:02:14;;;;;;;6.27;3.90;;;17.90;82.80;;;18.76;49.75;95665.66;5082071;28;20483;-58
2023/10/02 06:04:47;;;;;;;7.10;3.87;;;18.20;82.10;;;19.06;49.22;95671.28;5082571;28;20595;-60
2023/10/02 06:07:19;;;;;;;11.50;5.30;;;18.50;80.30;;;19.34;48.77;95669.81;5088388;28;20515;-58
2023/10/02 06:09:47;;;;;;;23.40;4.60;;;18.80;79.90;;;19.62;48.16;95674.66;5083515;28;20489;-58
2023/10/02 06:12:15;;;;;;;10.00;4.60;;;19.10;78.60;;;19.90;47.54;95674.16;5080411;28;20499;-60
2023/10/02 06:14:43;;;;;;;7.37;4.10;;;19.30;78.00;;;20.19;47.31;95672.63;5091744;28;20537;-57
2023/10/02 06:17:11;;;;;;;4.90;3.77;;;19.60;76.50;;;20.46;46.51;95679.22;5089620;28;20449;-58
2023/10/02 06:19:44;;;;;;;6.67;3.90;;;19.80;75.70;;;20.75;46.07;95682.97;5087191;28;20493;-61
2023/10/02 06:22:15;;;;;;;21.43;4.63;;;20.10;74.80;;;21.06;45.77;95682.78;5084682;28;20963;-57
2023/10/02 06:24:43;;;;;;;9.33;4.67;;;20.40;73.80;;;21.38;45.19;95693.28;5086216;28;21035;-57
2023/10/02 06:27:17;;;;;;;15.47;4.10;;;20.70;73.00;;;21.71;44.16;95692.91;5087583;28;20453;-58
2023/10/02 06:29:47;;;;;;;8.13;3.90;;;21.10;71.80;;;22.05;43.95;95700.25;5088463;28;20554;-59
2023/10/02 06:32:19;;;;;;;7.70;3.60;;;21.40;71.20;;;22.40;43.29;95696.88;5083434;28;20443;-59
2023/10/02 06:34:47;;;;;;;7.87;4.17;;;21.70;69.60;;;22.70;42.81;95692.19;5079757;28;20458;-57
2023/10/02 06:37:17;;;;;;;12.90;4.33;;;22.00;68.70;;;23.00;42.20;95692.78;5089375;28;20483;-59
2023/10/02 06:39:46;;;;;;;6.60;3.80;;;22.30;67.70;;;23.30;42.20;95695.25;5087163;28;20512;-59
2023/10/02 06:42:17;;;;;;;5.00;3.97;;;22.60;66.90;;;23.64;41.17;95698.91;5090039;28;20621;-60
2023/10/02 06:44:53;;;;;;;13.60;4.10;;;23.00;66.00;;;23.98;40.97;95699.84;5084049;28;20490;-58
2023/10/02 06:47:23;;;;;;;7.97;3.90;;;23.30;65.40;;;24.32;40.47;95700.72;5082556;28;20525;-61
2023/10/02 06:49:52;;;;;;;8.33;4.27;;;23.70;64.50;;;24.64;39.65;95696.44;5085260;28;20473;-57
2023/10/02 06:52:21;;;;;;;15.73;4.00;;;23.90;63.00;;;24.99;39.04;95701.56;5084273;28;20447;-61
2023/10/02 06:54:49;;;;;;;6.10;4.17;;;24.30;61.70;;;25.33;39.31;95701.50;5088008;28;20479;-61
2023/10/02 06:57:18;;;;;;;10.20;4.30;;;24.60;61.40;;;25.68;38.66;95704.69;5087949;28;20485;-58
2023/10/02 06:59:53;;;;;;;8.07;5.10;;;24.90;60.90;;;26.05;37.83;95704.94;5090354;28;20510;-59
2023/10/02 07:02:21;;;;;;;7.93;4.23;;;25.30;59.80;;;26.45;37.39;95718.19;5083320;28;20762;-58
2023/10/02 07:04:49;;;;;;;12.33;4.50;;;25.70;59.10;;;26.88;37.37;95713.94;5085945;28;21020;-63
2023/10/02 07:07:21;;;;;;;8.10;4.23;;;26.10;58.80;;;27.30;37.10;95705.22;5088616;28;20982;-61
2023/10/02 07:09:50;;;;;;;10.83;4.50;;;26.50;58.50;;;27.73;36.61;95715.09;5080283;28;20462;-58
2023/10/02 07:12:18;;;;;;;5.57;4.57;;;26.90;57.40;;;28.13;35.78;95719.22;5089278;28;20461;-58
2023/10/02 07:14:45;;;;;;;7.90;4.50;;;27.30;56.50;;;28.53;35.83;95719.44;5087022;28;20462;-58
2023/10/02 07:17:16;;;;;;;4.87;4.37;;;27.70;56.40;;;28.97;34.57;95714.59;5087816;28;20835;-61
2023/10/02 07:19:54;;;;;;;14.37;5.13;;;28.20;53.40;;;29.37;33.31;95717.66;5091769;28;20530;-60
2023/10/02 07:22:24;;;;;;;12.10;5.13;;;28.60;52.50;;;29.73;31.21;95721.13;5083420;28;21229;-60
2023/10/02 07:24:54;;;;;;;8.50;5.03;;;29.00;51.50;;;30.10;33.76;95721.63;5086251;28;20477;-60
2023/10/02 07:27:27;;;;;;;5.10;3.40;;;29.40;52.60;;;30.49;33.44;95723.69;5087560;28;20226;-60
2023/10/02 07:29:56;;;;;;;8.40;5.23;;;29.90;51.60;;;30.83;32.47;95724.56;5085739;28;20250;-60
2023/10/02 07:32:25;;;;;;;8.17;4.27;;;30.40;51.10;;;31.13;31.50;95717.16;5082511;28;20202;-60
2023/10/02 07:34:53;;;;;;;9.33;5.13;;;30.70;49.90;;;31.39;31.45;95715.63;5086981;28;20300;-57
2023/10/02 07:37:24;;;;;;;8.83;4.87;;;31.00;49.20;;;31.60;31.15;95709.44;5081925;28;20693;-61
2023/10/02 07:40:00;;;;;;;4.83;4.03;;;31.30;48.50;;;31.63;31.31;95716.25;5083332;28;20230;-58
2023/10/02 07:42:32;;;;;;;7.22;4.55;;;31.40;47.80;;;31.39;30.55;95716.44;5085157;28;20283;-57
2023/10/02 07:45:12;;;;;;;10.32;3.67;;;31.30;47.00;;;31.36;30.78;95710.69;5085740;28;20315;-61
2023/10/02 07:47:55;;;;;;;5.00;3.75;;;31.30;47.30;;;31.59;29.86;95729.53;5085547;28;20245;-59
2023/10/02 07:50:33;;;;;;;5.85;3.63;;;31.40;46.10;;;31.84;30.12;95730.94;5086009;28;20238;-58
2023/10/02 07:53:06;;;;;;;8.10;3.60;;;31.50;46.80;;;32.00;29.91;95721.03;5087710;28;20273;-58
2023/10/02 07:55:42;;;;;;;6.90;3.95;;;31.70;46.50;;;32.23;29.81;95719.97;5086659;28;20640;-58
2023/10/02 07:58:09;;;;;;;11.77;4.45;;;31.80;46.30;;;32.46;29.22;95710.66;5085481;28;20226;-61
2023/10/02 08:00:40;;;;;;;16.88;4.22;;;32.00;45.40;;;32.67;28.96;95713.59;5082228;28;20219;-60
2023/10/02 08:05:51;;;;;;;13.63;4.60;;;32.40;44.70;;;32.95;28.50;95728.00;5083984;28;20321;-59
2023/10/02 08:08:20;;;;;;;9.82;3.83;;;32.50;44.20;;;33.05;27.73;95722.63;5084463;28;20278;-61
2023/10/02 08:10:49;;;;;;;13.13;4.22;;;32.70;43.40;;;33.12;28.07;95717.75;5085764;28;20227;-59
2023/10/02 08:13:16;;;;;;;5.00;3.80;;;32.70;43.50;;;33.25;27.88;95724.69;5087293;28;20551;-59
2023/10/02 08:15:45;;;;;;;11.45;5.57;;;32.80;43.10;;;33.29;27.36;95720.34;5089396;28;20311;-58
2023/10/02 08:18:17;;;;;;;5.90;4.13;;;32.80;41.90;;;33.27;27.34;95719.78;5083299;28;20200;-57
2023/10/02 08:20:45;;;;;;;8.13;4.43;;;32.80;42.50;;;33.31;27.48;95711.91;5085959;28;20218;-58
2023/10/02 08:23:21;;;;;;;8.38;4.60;;;32.80;42.20;;;33.24;27.64;95710.22;5088292;28;20203;-58
2023/10/02 08:26:00;;;;;;;8.80;4.40;;;32.80;42.00;;;33.22;27.07;95712.41;5086158;28;20296;-57
2023/10/02 08:28:33;;;;;;;9.68;4.82;;;32.70;41.30;;;33.21;26.79;95708.03;5086933;28;20295;-59
2023/10/02 08:31:01;;;;;;;8.02;5.25;;;32.70;42.20;;;33.22;26.67;95709.69;5080879;28;20301;-58
2023/10/02 08:33:30;;;;;;;15.20;5.45;;;32.70;41.00;;;33.13;27.06;95704.97;5095041;28;20484;-61
2023/10/02 08:36:01;;;;;;;12.13;4.28;;;32.50;42.10;;;32.98;26.49;95705.66;5080175;28;20225;-61
2023/10/02 08:38:28;;;;;;;6.80;5.03;;;32.40;40.20;;;32.82;26.96;95719.16;5084124;28;20223;-59
2023/10/02 08:41:00;;;;;;;10.27;5.25;;;32.30;41.30;;;32.86;27.16;95712.13;5086692;28;20241;-58
2023/10/02 08:43:28;;;;;;;6.25;4.10;;;32.20;41.40;;;32.98;26.64;95716.56;5084321;28;20195;-62
2023/10/02 08:45:55;;;;;;;11.40;5.07;;;32.30;40.80;;;33.04;26.14;95715.53;5084599;28;20211;-59
2023/10/02 08:48:25;;;;;;;8.80;4.03;;;32.40;40.80;;;33.10;26.21;95710.94;5089418;28;20203;-58
2023/10/02 08:50:57;;;;;;;6.15;4.13;;;32.40;40.60;;;33.10;26.07;95711.75;5084207;28;20238;-61
2023/10/02 08:53:25;;;;;;;8.80;4.82;;;32.40;40.20;;;33.10;26.00;95695.38;5084481;28;20187;-61
2023/10/02 08:56:22;;;;;;;11.73;4.38;;;32.40;39.90;;;33.04;25.88;95707.34;5091322;28;20219;-60
2023/10/02 08:59:15;;;;;;;7.80;4.43;;;32.40;39.40;;;32.95;26.10;95698.00;5083066;28;20195;-61
2023/10/02 09:01:40;;;;;;;9.30;4.93;;;32.30;40.40;;;32.97;26.29;95693.94;5088044;28;20703;-61
2023/10/02 09:04:23;;;;;;;10.77;4.82;;;32.30;40.30;;;33.08;26.38;95689.38;5081189;28;20211;-60
2023/10/02 09:06:53;;;;;;;10.40;4.03;;;32.40;40.40;;;33.20;25.61;95695.50;5081833;28;20661;-59
2023/10/02 09:09:26;;;;;;;7.43;4.60;;;32.50;39.90;;;33.28;24.76;95696.91;5079602;28;20233;-60
2023/10/02 09:11:57;;;;;;;6.75;4.03;;;32.60;38.80;;;33.34;25.57;95692.28;5088024;28;20239;-57
2023/10/02 09:17:20;;;;;;;8.00;5.25;;;32.70;37.90;;;33.40;25.23;95688.50;5120312;27;20544;-62
2023/10/02 09:20:03;;;;;;;10.23;4.88;;;32.70;39.10;;;33.45;25.17;95696.72;5105607;27;20305;-61
2023/10/02 09:22:37;;;;;;;7.85;4.13;;;32.80;38.80;;;33.57;25.30;95693.78;5118790;28;20272;-60
2023/10/02 09:25:12;;;;;;;8.32;4.75;;;32.90;38.80;;;33.71;25.04;95689.53;5115301;27;20224;-61
2023/10/02 09:27:54;;;;;;;10.98;4.72;;;33.00;38.70;;;33.81;23.91;95687.91;5113041;28;20275;-63
2023/10/02 09:30:36;;;;;;;4.85;4.13;;;33.10;38.20;;;33.92;24.62;95692.31;5113526;28;20225;-58
2023/10/02 09:33:07;;;;;;;8.45;4.38;;;33.20;38.40;;;33.95;24.06;95695.31;5114806;27;20199;-62
2023/10/02 09:35:39;;;;;;;11.50;4.82;;;33.30;38.30;;;34.00;24.18;95685.50;5105718;28;20235;-60
2023/10/02 09:38:08;;;;;;;7.97;4.85;;;33.30;38.00;;;34.07;24.68;95691.53;5105178;28;20230;-61
2023/10/02 09:40:59;;;;;;;10.80;4.60;;;33.40;38.00;;;34.10;24.85;95697.28;5106768;28;20347;-61
2023/10/02 09:43:30;;;;;;;8.45;4.10;;;33.40;38.00;;;34.13;24.31;95687.75;5106875;28;20195;-59
2023/10/02 09:46:00;;;;;;;7.22;4.93;;;33.50;37.70;;;34.16;23.79;95689.09;5106711;28;20225;-60
2023/10/02 09:48:53;;;;;;;9.02;4.50;;;33.50;37.70;;;34.17;23.94;95688.81;5114593;28;20656;-61
2023/10/02 09:51:38;;;;;;;6.20;4.60;;;33.50;37.30;;;34.22;23.92;95682.56;5118133;28;20277;-59
2023/10/02 09:54:13;;;;;;;7.20;4.47;;;33.50;37.00;;;34.23;24.44;95685.00;5117768;28;20680;-60
2023/10/02 09:57:04;;;;;;;10.50;5.43;;;33.50;37.20;;;34.27;23.39;95674.38;5116282;28;20370;-60
2023/10/02 09:59:37;;;;;;;9.80;5.07;;;33.50;36.90;;;34.29;24.29;95680.41;5116264;28;20227;-59
2023/10/02 10:05:45;;;;;;;6.05;4.45;;;33.60;36.60;;;34.32;23.81;95687.22;5115249;28;20234;-60
2023/10/02 10:11:10;;;;;;;9.15;4.82;;;33.60;36.60;;;34.09;24.18;95686.63;5114191;27;20934;-62
2023/10/02 10:13:37;;;;;;;14.25;4.80;;;33.40;36.70;;;34.00;24.51;95685.50;5108126;28;20186;-64
2023/10/02 10:16:36;;;;;;;7.22;4.70;;;33.30;36.90;;;33.98;23.44;95674.06;5117459;28;20234;-59
2023/10/02 10:19:30;;;;;;;7.55;4.72;;;33.30;36.70;;;33.94;24.31;95671.84;5114537;28;20222;-64
2023/10/02 10:22:04;;;;;;;7.25;4.97;;;33.30;36.90;;;33.94;24.40;95665.56;5115375;28;20203;-59
2023/10/02 10:25:22;;;;;;;6.72;4.57;;;33.20;37.00;;;33.92;24.11;95667.75;5114601;27;20290;-60
2023/10/02 10:28:02;;;;;;;6.20;5.03;;;33.20;37.20;;;33.90;24.51;95654.38;5107500;28;20306;-65
2023/10/02 10:30:42;;;;;;;7.22;5.18;;;33.20;37.10;;;33.83;23.79;95655.72;5104352;27;20223;-58
2023/10/02 10:33:36;;;;;;;5.40;4.05;;;33.10;36.00;;;33.62;23.53;95641.97;5092448;28;20282;-61
2023/10/02 10:36:13;;;;;;;11.63;4.90;;;33.00;36.70;;;33.52;24.07;95641.94;5091948;28;20270;-61
2023/10/02 10:38:44;;;;;;;10.40;5.10;;;32.90;36.90;;;33.44;24.47;95642.44;5100467;28;20711;-61
2023/10/02 10:41:27;;;;;;;8.00;3.80;;;32.70;37.10;;;33.41;23.78;95641.06;5101917;28;20199;-62
2023/10/02 10:43:59;;;;;;;5.93;4.90;;;32.70;37.10;;;33.14;23.18;95636.53;5101086;28;20282;-60
2023/10/02 10:46:28;;;;;;;14.15;6.20;;;32.50;36.00;;;32.78;23.70;95628.16;5101781;27;20223;-59
2023/10/02 10:48:59;;;;;;;9.00;5.43;;;32.20;35.90;;;32.54;24.58;95630.38;5103784;28;20631;-59
2023/10/02 10:51:31;;;;;;;17.38;5.53;;;32.00;37.00;;;32.40;24.94;95619.09;5102237;28;20239;-61
2023/10/02 10:54:25;;;;;;;5.35;4.68;;;31.80;37.50;;;32.29;24.39;95617.38;5101579;28;20290;-64
2023/10/02 10:57:18;;;;;;;8.50;5.10;;;31.60;37.00;;;32.17;24.22;95615.63;5091704;28;20231;-58
2023/10/02 10:59:46;;;;;;;5.65;4.57;;;31.50;37.10;;;31.92;24.96;95609.94;5099154;28;20223;-58
2023/10/02 11:02:16;;;;;;;5.70;4.25;;;31.30;37.80;;;31.70;25.77;95612.69;5101233;28;20252;-59
2023/10/02 11:04:47;;;;;;;8.25;4.38;;;31.10;38.10;;;31.64;25.29;95617.25;5100941;28;20329;-60